Time;durP1;ratioP1;P1;durP2;ratioP2;P2;SDS_P1;SDS_P2;PMS_P1;PMS_P2;Temp;Humidity;BMP_temperature;BMP_pressure;BME280_temperature;BME280_humidity;BME280_pressure;Samples;Min_cycle;Max_cycle;Signal;HPM_P1;HPM_P2
2021/12/09 00:01:05;;;;;;;;;;;;;;;-0.95;96.28;99488.19;4975471;28;864;-56
2021/12/09 00:03:34;;;;;;;;;;;;;;;-1.00;96.14;99493.00;4975421;28;869;-56
2021/12/09 00:06:02;;;;;;;;;;;;;;;-1.05;96.61;99491.28;4975213;28;1051;-56
2021/12/09 00:08:29;;;;;;;;;;;;;;;-1.05;96.42;99496.72;4975444;28;820;-56
2021/12/09 16:13:01;;;;;;;;;;;;;;;4.96;94.80;99464.56;4973536;28;1964;-56
2021/12/09 16:15:37;;;;;;;;;;;;;;;4.88;94.46;99469.16;4975397;28;868;-56
2021/12/09 16:18:04;;;;;;;;;;;;;;;4.79;94.46;99461.22;4975301;28;931;-56
2021/12/09 16:20:36;;;;;;;;;;;;;;;4.69;94.42;99461.88;4975408;28;938;-56
2021/12/09 16:23:03;;;;;;;;;;;;;;;4.78;95.58;99448.72;4975215;28;944;-56
2021/12/09 16:25:29;;;;;;;;;;;;;;;5.01;95.20;99445.06;4975456;28;896;-56
2021/12/09 16:27:56;;;;;;;;;;;;;;;5.03;94.81;99438.03;4975480;28;844;-56
2021/12/09 16:30:28;;;;;;;;;;;;;;;5.04;95.33;99453.31;4975145;28;828;-56
2021/12/09 16:32:56;;;;;;;;;;;;;;;4.75;95.05;99399.38;4975268;28;2040;-56
2021/12/09 16:35:27;;;;;;;;;;;;;;;4.94;95.16;99443.03;4975001;28;839;-56
2021/12/09 16:37:54;;;;;;;;;;;;;;;4.83;95.32;99450.34;4975227;28;828;-56
2021/12/09 16:40:25;;;;;;;;;;;;;;;4.73;95.65;99456.44;4975041;28;922;-56
2021/12/09 16:42:52;;;;;;;;;;;;;;;4.66;95.23;99448.94;4974890;28;851;-56
2021/12/09 16:45:20;;;;;;;;;;;;;;;4.53;95.07;99453.84;4974891;28;812;-56
2021/12/09 16:47:47;;;;;;;;;;;;;;;4.36;95.43;99452.44;4974616;28;923;-56
2021/12/09 16:50:15;;;;;;;;;;;;;;;4.19;95.38;99458.44;4974927;28;824;-56
2021/12/09 16:52:42;;;;;;;;;;;;;;;4.32;97.07;99448.06;4974665;28;883;-56
2021/12/09 16:55:14;;;;;;;;;;;;;;;4.49;97.10;99447.53;4974641;28;1949;-56
2021/12/09 16:57:44;;;;;;;;;;;;;;;4.48;96.42;99444.03;4974771;28;951;-56
2021/12/09 17:00:12;;;;;;;;;;;;;;;4.35;96.11;99447.31;4974943;28;887;-56
2021/12/09 17:02:42;;;;;;;;;;;;;;;4.24;96.41;99458.13;4974868;28;899;-55
2021/12/09 17:05:11;;;;;;;;;;;;;;;4.27;96.63;99460.13;4974584;28;1028;-56
2021/12/09 17:07:38;;;;;;;;;;;;;;;4.19;96.55;99456.50;4974495;28;831;-56
2021/12/09 17:10:06;;;;;;;;;;;;;;;4.10;96.30;99458.69;4974475;28;895;-54
2021/12/09 17:12:32;;;;;;;;;;;;;;;4.19;96.99;99447.50;4974026;28;1618;-56
2021/12/09 17:15:03;;;;;;;;;;;;;;;4.19;96.95;99456.50;4974333;28;1918;-57
2021/12/09 17:17:30;;;;;;;;;;;;;;;4.40;98.56;99449.75;4974303;28;820;-56
2021/12/09 17:19:57;;;;;;;;;;;;;;;4.65;98.77;99450.91;4973098;28;891;-56
2021/12/09 17:22:24;;;;;;;;;;;;;;;4.89;99.23;99448.84;4974225;28;883;-56
2021/12/09 17:24:56;;;;;;;;;;;;;;;5.14;99.41;99446.38;4974113;28;868;-56
2021/12/09 17:27:22;;;;;;;;;;;;;;;5.27;98.92;99441.44;4973971;28;916;-56
2021/12/09 17:29:49;;;;;;;;;;;;;;;5.37;98.34;99437.22;4973993;28;947;-56
2021/12/09 17:32:15;;;;;;;;;;;;;;;5.29;97.32;99447.31;4973981;28;864;-56
2021/12/09 17:34:42;;;;;;;;;;;;;;;5.26;97.54;99448.09;4973771;28;1898;-57
2021/12/09 17:37:09;;;;;;;;;;;;;;;5.36;97.81;99450.16;4972608;28;931;-56
2021/12/09 17:39:36;;;;;;;;;;;;;;;5.57;98.95;99444.09;4973903;28;891;-57
2021/12/09 17:42:04;;;;;;;;;;;;;;;5.78;98.65;99443.47;4973735;28;868;-57
2021/12/09 17:44:31;;;;;;;;;;;;;;;6.00;98.84;99444.50;4972602;28;863;-56
2021/12/09 17:46:59;;;;;;;;;;;;;;;6.20;98.21;99449.72;4973757;28;835;-56
2021/12/09 17:49:27;;;;;;;;;;;;;;;6.37;98.22;99443.56;4973915;28;820;-56
2021/12/09 17:52:04;;;;;;;;;;;;;;;6.56;98.15;99442.50;4973692;28;828;-57
2021/12/09 17:54:31;;;;;;;;;;;;;;;6.79;97.72;99455.97;4973621;28;1952;-57
2021/12/09 17:56:59;;;;;;;;;;;;;;;6.99;97.93;99459.19;4973464;28;880;-56
2021/12/09 17:59:26;;;;;;;;;;;;;;;7.15;97.60;99467.13;4973599;28;566;-57
2021/12/09 18:01:55;;;;;;;;;;;;;;;7.36;97.71;99469.13;4973433;28;916;-57
2021/12/09 18:04:21;;;;;;;;;;;;;;;7.33;96.51;99469.91;4973208;28;1041;-57
2021/12/09 18:06:48;;;;;;;;;;;;;;;7.18;96.54;99477.31;4973567;28;954;-57
2021/12/09 18:09:15;;;;;;;;;;;;;;;6.93;96.36;99477.22;4973391;28;844;-57
2021/12/09 18:11:41;;;;;;;;;;;;;;;6.67;95.85;99470.03;4972980;28;1227;-56
2021/12/09 18:14:09;;;;;;;;;;;;;;;6.30;96.00;99474.50;4973128;28;1977;-56
2021/12/09 18:16:41;;;;;;;;;;;;;;;6.05;96.40;99479.81;4973105;28;868;-55
2021/12/09 18:19:09;;;;;;;;;;;;;;;5.78;96.00;99470.91;4973120;28;1073;-56
2021/12/09 18:21:39;;;;;;;;;;;;;;;5.52;96.14;99458.13;4973270;28;877;-56
2021/12/09 18:24:06;;;;;;;;;;;;;;;5.41;96.71;99460.00;4973234;28;817;-56
2021/12/09 18:26:33;;;;;;;;;;;;;;;5.41;97.73;99460.00;4971740;28;942;-56
2021/12/09 18:29:01;;;;;;;;;;;;;;;5.41;97.70;99452.53;4973230;28;875;-56
2021/12/09 18:31:28;;;;;;;;;;;;;;;5.49;98.37;99459.69;4972681;28;828;-56
2021/12/09 18:33:54;;;;;;;;;;;;;;;5.49;97.39;99456.94;4971466;28;1944;-56
2021/12/09 18:36:23;;;;;;;;;;;;;;;5.39;97.93;99446.66;4972875;28;863;-56
2021/12/09 18:38:54;;;;;;;;;;;;;;;5.37;98.21;99443.50;4972909;28;836;-56
2021/12/09 18:41:25;;;;;;;;;;;;;;;5.30;97.97;99438.72;4973069;28;884;-56
2021/12/09 18:43:52;;;;;;;;;;;;;;;5.25;98.27;99438.31;4972795;28;860;-56
2021/12/09 18:46:19;;;;;;;;;;;;;;;5.21;98.16;99429.25;4972893;28;836;-56
2021/12/09 18:48:46;;;;;;;;;;;;;;;5.28;98.19;99418.34;4972786;28;870;-56
2021/12/09 18:51:18;;;;;;;;;;;;;;;5.32;98.80;99416.44;4972908;28;875;-56
2021/12/09 18:53:45;;;;;;;;;;;;;;;5.16;98.04;99416.66;4972616;28;1894;-56
2021/12/09 18:56:12;;;;;;;;;;;;;;;5.06;98.13;99415.41;4972711;28;820;-56
2021/12/09 18:58:39;;;;;;;;;;;;;;;5.02;98.04;99424.75;4972791;28;805;-56
2021/12/09 19:01:06;;;;;;;;;;;;;;;4.88;97.54;99423.38;4972627;28;835;-56
2021/12/09 19:03:35;;;;;;;;;;;;;;;4.80;97.65;99413.53;4972576;28;858;-56
2021/12/09 19:06:11;;;;;;;;;;;;;;;4.62;97.36;99416.03;4972962;28;1019;-56
2021/12/09 19:08:38;;;;;;;;;;;;;;;4.53;97.46;99414.75;4973302;28;788;-56
2021/12/09 19:11:07;;;;;;;;;;;;;;;4.49;97.66;99409.22;4972567;28;832;-55
2021/12/09 19:13:37;;;;;;;;;;;;;;;4.57;99.21;99413.63;4972297;28;1930;-55
2021/12/09 19:16:05;;;;;;;;;;;;;;;4.65;98.60;99411.75;4972666;28;896;-56
2021/12/09 19:18:31;;;;;;;;;;;;;;;4.61;98.34;99399.97;4972451;28;852;-56
2021/12/09 19:21:04;;;;;;;;;;;;;;;4.68;98.94;99409.06;4972418;28;979;-56
2021/12/09 19:23:32;;;;;;;;;;;;;;;4.65;97.97;99414.50;4972778;28;876;-56
2021/12/09 19:26:00;;;;;;;;;;;;;;;4.60;98.01;99417.56;4972375;28;935;-56
2021/12/09 19:28:26;;;;;;;;;;;;;;;4.79;99.56;99413.91;4972333;28;931;-56
2021/12/09 19:30:54;;;;;;;;;;;;;;;4.85;98.74;99410.47;4972360;28;861;-56
2021/12/09 19:33:25;;;;;;;;;;;;;;;4.75;98.21;99422.06;4972184;28;1944;-56
2021/12/09 19:35:51;;;;;;;;;;;;;;;4.73;99.03;99407.19;4972452;28;942;-54
2021/12/09 19:38:18;;;;;;;;;;;;;;;4.68;98.62;99411.81;4972279;28;950;-56
2021/12/09 19:40:44;;;;;;;;;;;;;;;4.67;98.90;99417.66;4972329;28;828;-56
2021/12/09 19:43:11;;;;;;;;;;;;;;;4.69;99.05;99409.84;4974599;28;860;-56
2021/12/09 19:45:37;;;;;;;;;;;;;;;4.87;100.00;99416.34;4975871;28;959;-56
2021/12/09 19:48:04;;;;;;;;;;;;;;;5.15;100.00;99415.09;4975889;28;892;-56
2021/12/09 19:50:31;;;;;;;;;;;;;;;5.03;100.00;99407.13;4975906;28;985;-56
2021/12/09 19:52:58;;;;;;;;;;;;;;;5.20;100.00;99416.69;4975821;28;1882;-56
2021/12/09 19:55:26;;;;;;;;;;;;;;;5.40;100.00;99398.91;4976005;28;831;-56
2021/12/09 19:57:53;;;;;;;;;;;;;;;5.60;100.00;99410.44;4975820;28;863;-56
2021/12/09 20:00:22;;;;;;;;;;;;;;;5.69;100.00;99402.66;4975654;28;888;-56
2021/12/09 20:02:49;;;;;;;;;;;;;;;5.76;100.00;99392.94;4958254;28;896;-56
2021/12/09 20:05:15;;;;;;;;;;;;;;;5.80;100.00;99393.75;4975848;28;1031;-56
2021/12/09 20:07:42;;;;;;;;;;;;;;;5.81;100.00;99395.34;4975595;28;866;-56
2021/12/09 20:10:10;;;;;;;;;;;;;;;5.85;100.00;99391.44;4975424;28;861;-57
2021/12/09 20:12:37;;;;;;;;;;;;;;;5.88;100.00;99396.16;4975144;28;1233;-55
2021/12/09 20:15:05;;;;;;;;;;;;;;;6.06;100.00;99392.78;4958338;28;1907;-57
2021/12/09 20:17:32;;;;;;;;;;;;;;;6.20;100.00;99381.91;4975405;28;856;-57
2021/12/09 20:19:58;;;;;;;;;;;;;;;6.32;100.00;99386.31;4975605;28;1047;-57
2021/12/09 20:22:26;;;;;;;;;;;;;;;6.29;99.28;99371.38;4975262;28;915;-56
2021/12/09 20:24:55;;;;;;;;;;;;;;;6.22;99.12;99379.56;4975287;28;839;-56
2021/12/09 20:27:22;;;;;;;;;;;;;;;6.19;99.90;99369.38;4975327;28;863;-56
2021/12/09 20:29:48;;;;;;;;;;;;;;;6.30;100.00;99367.47;4975348;28;939;-57
2021/12/09 20:32:15;;;;;;;;;;;;;;;6.50;100.00;99375.41;4975279;28;903;-56
2021/12/09 20:34:42;;;;;;;;;;;;;;;6.67;100.00;99379.41;4975051;28;1924;-56
2021/12/09 20:37:09;;;;;;;;;;;;;;;7.30;100.00;99368.97;4975000;28;908;-57
2021/12/09 20:39:38;;;;;;;;;;;;;;;7.44;99.39;99379.19;4974934;28;907;-57
2021/12/09 20:42:06;;;;;;;;;;;;;;;7.45;99.75;99378.03;4974963;28;879;-57
2021/12/09 20:44:33;;;;;;;;;;;;;;;7.41;99.49;99378.03;4975362;28;808;-56
2021/12/09 20:47:00;;;;;;;;;;;;;;;7.48;99.75;99380.75;4975276;28;860;-57
2021/12/09 20:49:26;;;;;;;;;;;;;;;7.53;99.37;99369.38;4975009;28;824;-57
2021/12/09 20:51:54;;;;;;;;;;;;;;;7.59;99.47;99369.75;4975350;28;863;-57
2021/12/09 20:54:20;;;;;;;;;;;;;;;7.40;98.21;99379.19;4974515;28;1886;-57
2021/12/09 20:56:48;;;;;;;;;;;;;;;6.97;97.91;99381.84;4975129;28;804;-56
2021/12/09 20:59:15;;;;;;;;;;;;;;;6.81;98.96;99373.97;4975385;28;776;-56
2021/12/09 21:01:43;;;;;;;;;;;;;;;6.85;99.16;99374.75;4974978;28;809;-56
2021/12/09 21:04:08;;;;;;;;;;;;;;;6.97;99.67;99359.09;4974771;28;1260;-56
2021/12/09 21:06:35;;;;;;;;;;;;;;;7.09;99.28;99362.25;4975225;28;836;-56
2021/12/09 21:09:03;;;;;;;;;;;;;;;7.38;99.78;99361.50;4975233;28;781;-56
2021/12/09 21:11:30;;;;;;;;;;;;;;;7.66;100.00;99357.97;4974892;28;812;-57
2021/12/09 21:13:58;;;;;;;;;;;;;;;7.75;99.10;99372.13;4974399;28;1906;-56
2021/12/09 21:16:25;;;;;;;;;;;;;;;8.00;100.00;99366.63;4974502;28;952;-57
2021/12/09 21:18:51;;;;;;;;;;;;;;;8.39;99.99;99377.53;4974427;28;963;-57
2021/12/09 21:21:18;;;;;;;;;;;;;;;8.77;99.22;99375.06;4974548;28;832;-57
2021/12/09 21:23:45;;;;;;;;;;;;;;;9.03;98.30;99369.44;4974366;28;891;-56
2021/12/09 21:26:11;;;;;;;;;;;;;;;9.11;97.90;99360.72;4974338;28;851;-57
2021/12/09 21:28:40;;;;;;;;;;;;;;;8.99;96.08;99358.41;4974212;28;840;-57
2021/12/09 21:31:06;;;;;;;;;;;;;;;8.79;95.28;99364.44;4974385;28;887;-57
2021/12/09 21:33:41;;;;;;;;;;;;;;;8.58;95.37;99372.78;4974223;28;1954;-57
2021/12/09 21:36:09;;;;;;;;;;;;;;;8.25;95.05;99371.28;4973858;28;974;-56
2021/12/09 21:38:36;;;;;;;;;;;;;;;8.05;94.93;99377.22;4974051;28;902;-57
2021/12/09 21:41:04;;;;;;;;;;;;;;;7.89;95.86;99377.59;4973908;28;844;-56
2021/12/09 21:43:33;;;;;;;;;;;;;;;7.84;96.54;99380.78;4973729;28;863;-57
2021/12/09 21:46:00;;;;;;;;;;;;;;;8.18;97.92;99388.59;4973748;28;883;-57
2021/12/09 21:48:27;;;;;;;;;;;;;;;8.52;97.27;99388.94;4973723;28;842;-57
2021/12/09 21:50:53;;;;;;;;;;;;;;;8.72;96.42;99399.47;4973642;28;828;-57
2021/12/09 21:53:20;;;;;;;;;;;;;;;8.82;95.31;99397.88;4973680;28;1962;-57
2021/12/09 21:55:46;;;;;;;;;;;;;;;8.91;95.05;99392.72;4973603;28;902;-56
2021/12/09 21:58:12;;;;;;;;;;;;;;;9.24;94.75;99371.25;4973742;28;868;-57
2021/12/09 22:00:38;;;;;;;;;;;;;;;9.72;93.37;99376.81;4956117;28;1846;-57
2021/12/09 22:03:09;;;;;;;;;;;;;;;10.19;91.24;99362.59;4973489;28;867;-57
2021/12/09 22:05:36;;;;;;;;;;;;;;;10.40;88.77;99359.63;4973083;28;1037;-57
2021/12/09 22:08:03;;;;;;;;;;;;;;;10.68;86.66;99354.94;4973449;28;859;-57
2021/12/09 22:10:30;;;;;;;;;;;;;;;10.55;86.33;99356.69;4973355;28;879;-57
2021/12/09 22:13:01;;;;;;;;;;;;;;;10.08;87.77;99353.63;4973144;28;1387;-57
2021/12/09 22:15:27;;;;;;;;;;;;;;;9.69;88.41;99347.28;4973183;28;1092;-57
2021/12/09 22:17:54;;;;;;;;;;;;;;;9.49;88.97;99344.28;4973252;28;887;-57
2021/12/09 22:20:20;;;;;;;;;;;;;;;9.31;89.57;99338.91;4973105;28;911;-57
2021/12/09 22:22:47;;;;;;;;;;;;;;;9.26;90.11;99333.03;4973271;28;971;-57
2021/12/09 22:25:14;;;;;;;;;;;;;;;9.38;90.30;99330.56;4973158;28;903;-57
2021/12/09 22:27:42;;;;;;;;;;;;;;;9.56;90.39;99329.66;4973076;28;887;-57
2021/12/09 22:30:09;;;;;;;;;;;;;;;9.70;90.23;99324.00;4972892;28;1018;-57
2021/12/09 22:32:36;;;;;;;;;;;;;;;9.85;90.32;99335.69;4972897;28;920;-57
2021/12/09 22:35:03;;;;;;;;;;;;;;;9.88;89.42;99325.81;4973000;28;1953;-57
2021/12/09 22:37:29;;;;;;;;;;;;;;;10.03;88.86;99330.03;4972796;28;880;-57
2021/12/09 22:39:56;;;;;;;;;;;;;;;10.14;86.96;99335.44;4972960;28;957;-57
2021/12/09 22:42:23;;;;;;;;;;;;;;;10.33;86.74;99329.31;4972891;28;840;-56
2021/12/09 22:44:50;;;;;;;;;;;;;;;10.47;86.52;99328.34;4972838;28;882;-57
2021/12/09 22:47:18;;;;;;;;;;;;;;;10.45;86.92;99318.91;4972834;28;805;-57
2021/12/09 22:49:49;;;;;;;;;;;;;;;10.48;86.47;99316.13;4972743;28;835;-57
2021/12/09 22:52:18;;;;;;;;;;;;;;;10.45;86.19;99322.47;4972730;28;1042;-57
2021/12/09 22:54:45;;;;;;;;;;;;;;;10.49;86.65;99322.44;4972959;28;1996;-56
2021/12/09 22:57:12;;;;;;;;;;;;;;;10.50;86.76;99322.03;4972851;28;951;-57
2021/12/09 22:59:38;;;;;;;;;;;;;;;10.47;87.60;99325.59;4973126;28;872;-57
2021/12/09 23:02:05;;;;;;;;;;;;;;;10.48;86.79;99310.59;4973454;28;808;-57
2021/12/09 23:04:32;;;;;;;;;;;;;;;10.50;85.99;99307.44;4972809;28;1017;-57
2021/12/09 23:06:59;;;;;;;;;;;;;;;10.52;86.20;99299.47;4973131;28;797;-57
2021/12/09 23:09:28;;;;;;;;;;;;;;;10.47;86.51;99306.25;4972837;28;850;-57
2021/12/09 23:11:55;;;;;;;;;;;;;;;10.45;87.06;99296.81;4972584;28;1794;-57
2021/12/09 23:14:34;;;;;;;;;;;;;;;10.42;87.17;99285.41;4972740;28;1918;-57
2021/12/09 23:17:04;;;;;;;;;;;;;;;10.41;87.28;99300.41;4974655;28;915;-57
2021/12/09 23:19:32;;;;;;;;;;;;;;;10.50;87.07;99290.84;4976397;28;916;-57
2021/12/09 23:21:59;;;;;;;;;;;;;;;10.52;87.14;99291.19;4959031;28;848;-57
2021/12/09 23:24:25;;;;;;;;;;;;;;;10.49;87.19;99289.28;4976356;28;884;-56
2021/12/09 23:26:52;;;;;;;;;;;;;;;10.42;86.79;99296.44;4976231;28;908;-57
2021/12/09 23:29:19;;;;;;;;;;;;;;;10.43;86.19;99300.00;4976218;28;894;-57
2021/12/09 23:31:46;;;;;;;;;;;;;;;10.37;86.68;99302.44;4976470;28;876;-57
2021/12/09 23:34:13;;;;;;;;;;;;;;;10.35;87.18;99302.06;4976086;28;1960;-57
2021/12/09 23:36:39;;;;;;;;;;;;;;;10.31;87.54;99301.31;4976183;28;1635;-57
2021/12/09 23:39:10;;;;;;;;;;;;;;;10.19;86.99;99310.88;4976336;28;942;-57
2021/12/09 23:41:39;;;;;;;;;;;;;;;10.13;87.29;99306.22;4976110;28;847;-57
2021/12/09 23:44:07;;;;;;;;;;;;;;;10.14;87.08;99308.59;4976405;28;880;-57
2021/12/09 23:46:34;;;;;;;;;;;;;;;10.21;87.25;99308.50;4976210;28;871;-57
2021/12/09 23:49:09;;;;;;;;;;;;;;;10.22;86.75;99315.59;4976170;28;966;-57
2021/12/09 23:51:43;;;;;;;;;;;;;;;10.26;86.40;99320.28;4975809;28;947;-57
2021/12/09 23:54:10;;;;;;;;;;;;;;;10.24;86.70;99315.16;4975855;28;1969;-57
2021/12/09 23:56:37;;;;;;;;;;;;;;;10.22;86.57;99318.38;4975762;28;848;-57
2021/12/09 23:59:06;;;;;;;;;;;;;;;10.15;87.39;99314.88;4975799;28;843;-57
